sensor_id;sensor_type;location;lat;lon;timestamp;P1;durP1;ratioP1;P2;durP2;ratioP2
20997;SDS011;10657;51.276;6.390;2022-12-07T00:01:43;17.70;;;9.10;;
20997;SDS011;10657;51.276;6.390;2022-12-07T00:04:12;14.02;;;9.70;;
20997;SDS011;10657;51.276;6.390;2022-12-07T00:06:42;18.35;;;9.40;;
20997;SDS011;10657;51.276;6.390;2022-12-07T00:09:11;16.10;;;9.43;;
20997;SDS011;10657;51.276;6.390;2022-12-07T00:11:40;17.80;;;9.25;;
20997;SDS011;10657;51.276;6.390;2022-12-07T00:14:07;17.40;;;9.13;;
20997;SDS011;10657;51.276;6.390;2022-12-07T00:16:36;24.10;;;9.45;;
20997;SDS011;10657;51.276;6.390;2022-12-07T00:19:03;15.70;;;9.75;;
20997;SDS011;10657;51.276;6.390;2022-12-07T00:21:31;17.30;;;10.07;;
20997;SDS011;10657;51.276;6.390;2022-12-07T00:23:59;16.15;;;9.80;;
20997;SDS011;10657;51.276;6.390;2022-12-07T00:26:30;15.40;;;8.85;;
20997;SDS011;10657;51.276;6.390;2022-12-07T00:29:04;16.05;;;10.13;;
20997;SDS011;10657;51.276;6.390;2022-12-07T00:31:33;14.93;;;9.68;;
20997;SDS011;10657;51.276;6.390;2022-12-07T00:34:05;16.02;;;11.13;;
20997;SDS011;10657;51.276;6.390;2022-12-07T00:36:33;17.33;;;11.48;;
20997;SDS011;10657;51.276;6.390;2022-12-07T00:39:00;17.85;;;10.32;;
20997;SDS011;10657;51.276;6.390;2022-12-07T00:41:28;19.23;;;10.57;;
20997;SDS011;10657;51.276;6.390;2022-12-07T00:43:56;14.20;;;10.15;;
20997;SDS011;10657;51.276;6.390;2022-12-07T00:46:23;19.27;;;10.82;;
20997;SDS011;10657;51.276;6.390;2022-12-07T00:48:50;16.00;;;10.23;;
20997;SDS011;10657;51.276;6.390;2022-12-07T00:51:18;15.40;;;9.75;;
20997;SDS011;10657;51.276;6.390;2022-12-07T00:53:46;19.25;;;10.75;;
20997;SDS011;10657;51.276;6.390;2022-12-07T00:56:47;18.63;;;10.88;;
20997;SDS011;10657;51.276;6.390;2022-12-07T00:59:06;14.68;;;10.27;;
20997;SDS011;10657;51.276;6.390;2022-12-07T01:01:35;19.13;;;10.10;;
20997;SDS011;10657;51.276;6.390;2022-12-07T01:04:03;14.93;;;9.13;;
20997;SDS011;10657;51.276;6.390;2022-12-07T01:06:30;18.90;;;11.00;;
20997;SDS011;10657;51.276;6.390;2022-12-07T01:08:57;14.23;;;9.48;;
20997;SDS011;10657;51.276;6.390;2022-12-07T01:11:25;17.35;;;10.57;;
20997;SDS011;10657;51.276;6.390;2022-12-07T01:13:54;15.38;;;9.70;;
20997;SDS011;10657;51.276;6.390;2022-12-07T01:16:23;15.10;;;9.43;;
20997;SDS011;10657;51.276;6.390;2022-12-07T01:18:52;15.82;;;9.75;;
20997;SDS011;10657;51.276;6.390;2022-12-07T01:21:21;14.45;;;8.90;;
20997;SDS011;10657;51.276;6.390;2022-12-07T01:23:50;15.85;;;10.05;;
20997;SDS011;10657;51.276;6.390;2022-12-07T01:26:17;14.85;;;9.38;;
20997;SDS011;10657;51.276;6.390;2022-12-07T01:28:46;15.00;;;9.35;;
20997;SDS011;10657;51.276;6.390;2022-12-07T01:31:14;14.65;;;9.88;;
20997;SDS011;10657;51.276;6.390;2022-12-07T01:33:46;16.65;;;10.18;;
20997;SDS011;10657;51.276;6.390;2022-12-07T01:36:24;14.70;;;9.88;;
20997;SDS011;10657;51.276;6.390;2022-12-07T01:38:54;14.75;;;10.02;;
20997;SDS011;10657;51.276;6.390;2022-12-07T01:41:27;16.33;;;9.82;;
20997;SDS011;10657;51.276;6.390;2022-12-07T01:46:37;15.32;;;9.95;;
20997;SDS011;10657;51.276;6.390;2022-12-07T01:49:05;14.45;;;10.07;;
20997;SDS011;10657;51.276;6.390;2022-12-07T01:51:36;17.17;;;11.00;;
20997;SDS011;10657;51.276;6.390;2022-12-07T01:54:05;16.20;;;9.05;;
20997;SDS011;10657;51.276;6.390;2022-12-07T01:56:33;15.48;;;9.57;;
20997;SDS011;10657;51.276;6.390;2022-12-07T01:58:59;16.15;;;10.32;;
20997;SDS011;10657;51.276;6.390;2022-12-07T02:01:26;15.73;;;9.77;;
20997;SDS011;10657;51.276;6.390;2022-12-07T02:03:54;14.95;;;9.45;;
20997;SDS011;10657;51.276;6.390;2022-12-07T02:06:22;16.08;;;9.70;;
20997;SDS011;10657;51.276;6.390;2022-12-07T02:08:51;14.93;;;9.63;;
20997;SDS011;10657;51.276;6.390;2022-12-07T02:11:19;14.80;;;9.35;;
20997;SDS011;10657;51.276;6.390;2022-12-07T02:13:46;18.13;;;10.60;;
20997;SDS011;10657;51.276;6.390;2022-12-07T02:28:09;15.77;;;10.15;;
20997;SDS011;10657;51.276;6.390;2022-12-07T02:30:45;15.10;;;9.55;;
20997;SDS011;10657;51.276;6.390;2022-12-07T02:33:18;13.52;;;9.35;;
20997;SDS011;10657;51.276;6.390;2022-12-07T02:35:58;14.25;;;9.13;;
20997;SDS011;10657;51.276;6.390;2022-12-07T02:38:35;15.52;;;9.35;;
20997;SDS011;10657;51.276;6.390;2022-12-07T02:44:02;17.83;;;9.55;;
20997;SDS011;10657;51.276;6.390;2022-12-07T02:46:40;14.50;;;8.95;;
20997;SDS011;10657;51.276;6.390;2022-12-07T02:49:10;15.35;;;9.07;;
20997;SDS011;10657;51.276;6.390;2022-12-07T02:51:41;14.50;;;9.35;;
20997;SDS011;10657;51.276;6.390;2022-12-07T02:54:13;14.60;;;8.68;;
20997;SDS011;10657;51.276;6.390;2022-12-07T03:04:36;12.93;;;8.32;;
20997;SDS011;10657;51.276;6.390;2022-12-07T03:07:18;14.10;;;9.20;;
20997;SDS011;10657;51.276;6.390;2022-12-07T03:12:47;13.95;;;8.25;;
20997;SDS011;10657;51.276;6.390;2022-12-07T03:15:37;12.20;;;8.25;;
20997;SDS011;10657;51.276;6.390;2022-12-07T03:18:12;16.00;;;7.78;;
20997;SDS011;10657;51.276;6.390;2022-12-07T03:20:42;12.90;;;7.47;;
20997;SDS011;10657;51.276;6.390;2022-12-07T03:23:11;11.90;;;7.63;;
20997;SDS011;10657;51.276;6.390;2022-12-07T03:25:41;16.63;;;8.10;;
20997;SDS011;10657;51.276;6.390;2022-12-07T03:28:13;11.35;;;7.57;;
20997;SDS011;10657;51.276;6.390;2022-12-07T03:33:39;11.13;;;7.05;;
20997;SDS011;10657;51.276;6.390;2022-12-07T03:36:15;12.07;;;6.95;;
20997;SDS011;10657;51.276;6.390;2022-12-07T03:38:55;12.20;;;7.80;;
20997;SDS011;10657;51.276;6.390;2022-12-07T03:41:32;12.23;;;7.35;;
20997;SDS011;10657;51.276;6.390;2022-12-07T03:44:06;11.32;;;6.90;;
20997;SDS011;10657;51.276;6.390;2022-12-07T03:52:24;13.40;;;7.30;;
20997;SDS011;10657;51.276;6.390;2022-12-07T03:57:28;10.75;;;6.35;;
20997;SDS011;10657;51.276;6.390;2022-12-07T03:59:56;12.02;;;6.80;;
20997;SDS011;10657;51.276;6.390;2022-12-07T04:02:24;13.75;;;7.90;;
20997;SDS011;10657;51.276;6.390;2022-12-07T04:04:54;11.13;;;6.85;;
20997;SDS011;10657;51.276;6.390;2022-12-07T04:07:21;11.52;;;6.40;;
20997;SDS011;10657;51.276;6.390;2022-12-07T04:09:48;10.98;;;6.97;;
20997;SDS011;10657;51.276;6.390;2022-12-07T04:12:15;12.90;;;6.18;;
20997;SDS011;10657;51.276;6.390;2022-12-07T04:14:41;11.07;;;6.22;;
20997;SDS011;10657;51.276;6.390;2022-12-07T04:17:08;12.73;;;6.03;;
20997;SDS011;10657;51.276;6.390;2022-12-07T04:19:35;11.35;;;6.35;;
20997;SDS011;10657;51.276;6.390;2022-12-07T04:22:02;11.70;;;6.72;;
20997;SDS011;10657;51.276;6.390;2022-12-07T04:24:30;11.75;;;7.07;;
20997;SDS011;10657;51.276;6.390;2022-12-07T04:26:57;11.48;;;6.80;;
20997;SDS011;10657;51.276;6.390;2022-12-07T04:29:24;10.63;;;6.20;;
20997;SDS011;10657;51.276;6.390;2022-12-07T04:31:51;10.00;;;5.88;;
20997;SDS011;10657;51.276;6.390;2022-12-07T04:34:18;11.82;;;5.97;;
20997;SDS011;10657;51.276;6.390;2022-12-07T04:36:46;10.75;;;5.53;;
20997;SDS011;10657;51.276;6.390;2022-12-07T04:39:23;10.00;;;5.82;;
20997;SDS011;10657;51.276;6.390;2022-12-07T04:41:54;12.77;;;6.22;;
20997;SDS011;10657;51.276;6.390;2022-12-07T04:44:22;12.02;;;6.40;;
20997;SDS011;10657;51.276;6.390;2022-12-07T04:46:50;10.38;;;6.15;;
20997;SDS011;10657;51.276;6.390;2022-12-07T04:49:17;14.05;;;6.30;;
20997;SDS011;10657;51.276;6.390;2022-12-07T04:51:45;9.25;;;5.45;;
20997;SDS011;10657;51.276;6.390;2022-12-07T04:54:13;12.27;;;6.25;;
20997;SDS011;10657;51.276;6.390;2022-12-07T04:56:41;11.55;;;6.10;;
20997;SDS011;10657;51.276;6.390;2022-12-07T04:59:10;11.27;;;6.30;;
20997;SDS011;10657;51.276;6.390;2022-12-07T05:01:37;11.50;;;6.55;;
20997;SDS011;10657;51.276;6.390;2022-12-07T05:04:04;11.50;;;6.65;;
20997;SDS011;10657;51.276;6.390;2022-12-07T05:06:31;12.70;;;6.13;;
20997;SDS011;10657;51.276;6.390;2022-12-07T05:08:58;13.65;;;6.22;;
20997;SDS011;10657;51.276;6.390;2022-12-07T05:11:24;11.48;;;6.10;;
20997;SDS011;10657;51.276;6.390;2022-12-07T05:14:14;12.23;;;6.28;;
20997;SDS011;10657;51.276;6.390;2022-12-07T05:16:43;10.55;;;5.90;;
20997;SDS011;10657;51.276;6.390;2022-12-07T05:19:11;12.50;;;6.82;;
20997;SDS011;10657;51.276;6.390;2022-12-07T05:21:38;10.80;;;5.78;;
20997;SDS011;10657;51.276;6.390;2022-12-07T05:24:07;10.75;;;6.25;;
20997;SDS011;10657;51.276;6.390;2022-12-07T05:26:35;10.95;;;5.80;;
20997;SDS011;10657;51.276;6.390;2022-12-07T05:29:02;11.13;;;5.70;;
20997;SDS011;10657;51.276;6.390;2022-12-07T05:31:29;14.27;;;5.60;;
20997;SDS011;10657;51.276;6.390;2022-12-07T05:33:56;12.90;;;5.82;;
20997;SDS011;10657;51.276;6.390;2022-12-07T05:36:23;13.88;;;6.45;;
20997;SDS011;10657;51.276;6.390;2022-12-07T05:38:49;11.98;;;6.15;;
20997;SDS011;10657;51.276;6.390;2022-12-07T05:41:16;9.02;;;5.35;;
20997;SDS011;10657;51.276;6.390;2022-12-07T05:44:03;10.10;;;5.75;;
20997;SDS011;10657;51.276;6.390;2022-12-07T05:46:31;10.75;;;5.93;;
20997;SDS011;10657;51.276;6.390;2022-12-07T05:48:57;10.32;;;5.60;;
20997;SDS011;10657;51.276;6.390;2022-12-07T05:51:24;11.00;;;6.28;;
20997;SDS011;10657;51.276;6.390;2022-12-07T05:53:50;11.07;;;5.80;;
20997;SDS011;10657;51.276;6.390;2022-12-07T05:56:17;10.45;;;5.60;;
20997;SDS011;10657;51.276;6.390;2022-12-07T05:58:44;10.73;;;6.30;;
20997;SDS011;10657;51.276;6.390;2022-12-07T06:01:29;10.90;;;5.82;;
20997;SDS011;10657;51.276;6.390;2022-12-07T06:03:56;12.30;;;6.57;;
20997;SDS011;10657;51.276;6.390;2022-12-07T06:06:23;12.05;;;5.95;;
20997;SDS011;10657;51.276;6.390;2022-12-07T06:08:49;10.50;;;5.75;;
20997;SDS011;10657;51.276;6.390;2022-12-07T06:11:16;11.18;;;5.57;;
20997;SDS011;10657;51.276;6.390;2022-12-07T06:14:01;10.50;;;5.60;;
20997;SDS011;10657;51.276;6.390;2022-12-07T06:16:28;11.45;;;6.20;;
20997;SDS011;10657;51.276;6.390;2022-12-07T06:18:55;12.18;;;5.57;;
20997;SDS011;10657;51.276;6.390;2022-12-07T06:21:21;11.02;;;5.88;;
20997;SDS011;10657;51.276;6.390;2022-12-07T06:23:48;9.77;;;5.88;;
20997;SDS011;10657;51.276;6.390;2022-12-07T06:26:15;9.48;;;5.13;;
20997;SDS011;10657;51.276;6.390;2022-12-07T06:28:42;11.50;;;5.68;;
20997;SDS011;10657;51.276;6.390;2022-12-07T06:31:08;9.55;;;5.30;;
20997;SDS011;10657;51.276;6.390;2022-12-07T06:33:40;10.32;;;5.13;;
20997;SDS011;10657;51.276;6.390;2022-12-07T06:36:07;10.05;;;5.10;;
20997;SDS011;10657;51.276;6.390;2022-12-07T06:38:34;10.45;;;5.18;;
20997;SDS011;10657;51.276;6.390;2022-12-07T06:41:01;10.55;;;5.20;;
20997;SDS011;10657;51.276;6.390;2022-12-07T06:43:28;9.48;;;4.97;;
20997;SDS011;10657;51.276;6.390;2022-12-07T06:45:55;12.48;;;4.63;;
20997;SDS011;10657;51.276;6.390;2022-12-07T06:48:22;8.98;;;5.47;;
20997;SDS011;10657;51.276;6.390;2022-12-07T06:50:49;14.15;;;5.80;;
20997;SDS011;10657;51.276;6.390;2022-12-07T06:53:20;11.35;;;5.10;;
20997;SDS011;10657;51.276;6.390;2022-12-07T06:55:47;10.48;;;4.93;;
20997;SDS011;10657;51.276;6.390;2022-12-07T06:58:13;9.30;;;4.30;;
20997;SDS011;10657;51.276;6.390;2022-12-07T07:00:40;10.82;;;4.47;;
20997;SDS011;10657;51.276;6.390;2022-12-07T07:03:07;13.35;;;4.88;;
20997;SDS011;10657;51.276;6.390;2022-12-07T07:05:34;13.88;;;5.07;;
20997;SDS011;10657;51.276;6.390;2022-12-07T07:08:00;11.50;;;4.47;;
20997;SDS011;10657;51.276;6.390;2022-12-07T07:10:47;10.15;;;4.97;;
20997;SDS011;10657;51.276;6.390;2022-12-07T07:13:14;8.15;;;3.97;;
20997;SDS011;10657;51.276;6.390;2022-12-07T07:15:40;9.88;;;4.75;;
20997;SDS011;10657;51.276;6.390;2022-12-07T07:18:07;8.63;;;4.13;;
20997;SDS011;10657;51.276;6.390;2022-12-07T07:20:34;11.70;;;4.70;;
20997;SDS011;10657;51.276;6.390;2022-12-07T07:23:00;10.32;;;4.45;;
20997;SDS011;10657;51.276;6.390;2022-12-07T07:25:27;11.30;;;5.00;;
20997;SDS011;10657;51.276;6.390;2022-12-07T07:27:54;9.55;;;4.72;;
20997;SDS011;10657;51.276;6.390;2022-12-07T07:30:21;9.52;;;4.72;;
20997;SDS011;10657;51.276;6.390;2022-12-07T07:32:47;8.27;;;4.47;;
20997;SDS011;10657;51.276;6.390;2022-12-07T07:35:14;10.63;;;4.60;;
20997;SDS011;10657;51.276;6.390;2022-12-07T07:37:41;10.60;;;3.95;;
20997;SDS011;10657;51.276;6.390;2022-12-07T07:40:08;9.60;;;4.90;;
20997;SDS011;10657;51.276;6.390;2022-12-07T07:42:36;10.80;;;5.03;;
20997;SDS011;10657;51.276;6.390;2022-12-07T07:45:02;11.93;;;4.82;;
20997;SDS011;10657;51.276;6.390;2022-12-07T07:47:30;8.70;;;4.90;;
20997;SDS011;10657;51.276;6.390;2022-12-07T07:49:57;11.20;;;5.20;;
20997;SDS011;10657;51.276;6.390;2022-12-07T07:52:23;10.77;;;5.10;;
20997;SDS011;10657;51.276;6.390;2022-12-07T07:54:50;10.10;;;5.35;;
20997;SDS011;10657;51.276;6.390;2022-12-07T07:57:17;9.82;;;4.93;;
20997;SDS011;10657;51.276;6.390;2022-12-07T07:59:44;10.38;;;5.28;;
20997;SDS011;10657;51.276;6.390;2022-12-07T08:02:14;11.52;;;5.22;;
20997;SDS011;10657;51.276;6.390;2022-12-07T08:04:43;11.07;;;5.43;;
20997;SDS011;10657;51.276;6.390;2022-12-07T08:07:10;9.90;;;5.10;;
20997;SDS011;10657;51.276;6.390;2022-12-07T08:09:37;9.32;;;4.65;;
20997;SDS011;10657;51.276;6.390;2022-12-07T08:12:04;10.25;;;5.13;;
20997;SDS011;10657;51.276;6.390;2022-12-07T08:14:31;13.45;;;5.78;;
20997;SDS011;10657;51.276;6.390;2022-12-07T08:16:58;11.70;;;5.38;;
20997;SDS011;10657;51.276;6.390;2022-12-07T08:19:25;9.23;;;5.35;;
20997;SDS011;10657;51.276;6.390;2022-12-07T08:21:52;13.02;;;5.93;;
20997;SDS011;10657;51.276;6.390;2022-12-07T08:24:18;11.05;;;5.05;;
20997;SDS011;10657;51.276;6.390;2022-12-07T08:26:45;11.63;;;5.53;;
20997;SDS011;10657;51.276;6.390;2022-12-07T08:29:12;14.60;;;6.03;;
20997;SDS011;10657;51.276;6.390;2022-12-07T08:31:38;11.15;;;5.93;;
20997;SDS011;10657;51.276;6.390;2022-12-07T08:34:05;11.07;;;6.07;;
20997;SDS011;10657;51.276;6.390;2022-12-07T08:36:32;10.40;;;5.57;;
20997;SDS011;10657;51.276;6.390;2022-12-07T08:38:59;13.00;;;5.57;;
20997;SDS011;10657;51.276;6.390;2022-12-07T08:41:45;10.15;;;5.75;;
20997;SDS011;10657;51.276;6.390;2022-12-07T08:44:12;11.65;;;5.00;;
20997;SDS011;10657;51.276;6.390;2022-12-07T08:46:44;11.15;;;6.32;;
20997;SDS011;10657;51.276;6.390;2022-12-07T08:49:26;11.05;;;5.57;;
20997;SDS011;10657;51.276;6.390;2022-12-07T08:51:58;10.43;;;5.75;;
20997;SDS011;10657;51.276;6.390;2022-12-07T08:54:25;10.93;;;6.15;;
20997;SDS011;10657;51.276;6.390;2022-12-07T08:56:52;10.52;;;5.75;;
20997;SDS011;10657;51.276;6.390;2022-12-07T08:59:25;12.23;;;6.50;;
20997;SDS011;10657;51.276;6.390;2022-12-07T09:01:52;9.38;;;5.50;;
20997;SDS011;10657;51.276;6.390;2022-12-07T09:04:19;12.40;;;5.97;;
20997;SDS011;10657;51.276;6.390;2022-12-07T09:06:46;9.52;;;5.30;;
20997;SDS011;10657;51.276;6.390;2022-12-07T09:09:13;9.98;;;5.68;;
20997;SDS011;10657;51.276;6.390;2022-12-07T09:11:40;11.32;;;5.60;;
20997;SDS011;10657;51.276;6.390;2022-12-07T09:14:07;11.57;;;5.57;;
20997;SDS011;10657;51.276;6.390;2022-12-07T09:16:34;18.90;;;5.97;;
20997;SDS011;10657;51.276;6.390;2022-12-07T09:19:01;12.20;;;5.95;;
20997;SDS011;10657;51.276;6.390;2022-12-07T09:21:28;13.10;;;6.43;;
20997;SDS011;10657;51.276;6.390;2022-12-07T09:23:54;12.82;;;5.85;;
20997;SDS011;10657;51.276;6.390;2022-12-07T09:26:21;17.33;;;6.20;;
20997;SDS011;10657;51.276;6.390;2022-12-07T09:28:48;10.75;;;6.43;;
20997;SDS011;10657;51.276;6.390;2022-12-07T09:31:14;13.13;;;6.35;;
20997;SDS011;10657;51.276;6.390;2022-12-07T09:33:57;11.73;;;6.20;;
20997;SDS011;10657;51.276;6.390;2022-12-07T09:36:26;11.40;;;5.75;;
20997;SDS011;10657;51.276;6.390;2022-12-07T09:38:53;13.23;;;6.82;;
20997;SDS011;10657;51.276;6.390;2022-12-07T09:41:21;15.35;;;6.78;;
20997;SDS011;10657;51.276;6.390;2022-12-07T09:43:48;13.27;;;6.10;;
20997;SDS011;10657;51.276;6.390;2022-12-07T09:46:16;16.25;;;6.35;;
20997;SDS011;10657;51.276;6.390;2022-12-07T09:48:45;11.82;;;5.95;;
20997;SDS011;10657;51.276;6.390;2022-12-07T09:51:20;13.38;;;6.43;;
20997;SDS011;10657;51.276;6.390;2022-12-07T09:53:54;12.05;;;6.05;;
20997;SDS011;10657;51.276;6.390;2022-12-07T09:56:23;12.95;;;6.22;;
20997;SDS011;10657;51.276;6.390;2022-12-07T09:58:59;11.63;;;6.13;;
20997;SDS011;10657;51.276;6.390;2022-12-07T10:01:28;12.23;;;6.05;;
20997;SDS011;10657;51.276;6.390;2022-12-07T10:06:44;13.63;;;6.18;;
20997;SDS011;10657;51.276;6.390;2022-12-07T10:09:12;10.00;;;5.25;;
20997;SDS011;10657;51.276;6.390;2022-12-07T10:14:30;10.50;;;5.43;;
20997;SDS011;10657;51.276;6.390;2022-12-07T10:17:30;13.60;;;5.88;;
20997;SDS011;10657;51.276;6.390;2022-12-07T10:22:58;12.23;;;5.65;;
20997;SDS011;10657;51.276;6.390;2022-12-07T10:25:31;13.13;;;5.65;;
20997;SDS011;10657;51.276;6.390;2022-12-07T10:28:16;11.05;;;5.03;;
20997;SDS011;10657;51.276;6.390;2022-12-07T10:30:48;10.25;;;4.55;;
20997;SDS011;10657;51.276;6.390;2022-12-07T10:36:16;11.77;;;5.28;;
20997;SDS011;10657;51.276;6.390;2022-12-07T10:38:45;12.43;;;5.63;;
20997;SDS011;10657;51.276;6.390;2022-12-07T10:41:17;12.57;;;5.97;;
20997;SDS011;10657;51.276;6.390;2022-12-07T10:43:51;11.63;;;5.65;;
20997;SDS011;10657;51.276;6.390;2022-12-07T10:46:43;12.68;;;5.82;;
20997;SDS011;10657;51.276;6.390;2022-12-07T10:49:39;12.38;;;5.35;;
20997;SDS011;10657;51.276;6.390;2022-12-07T10:55:26;14.07;;;6.20;;
20997;SDS011;10657;51.276;6.390;2022-12-07T11:03:57;14.50;;;7.28;;
20997;SDS011;10657;51.276;6.390;2022-12-07T11:14:38;15.38;;;7.68;;
20997;SDS011;10657;51.276;6.390;2022-12-07T11:17:17;19.27;;;10.00;;
20997;SDS011;10657;51.276;6.390;2022-12-07T11:22:40;15.60;;;9.02;;
20997;SDS011;10657;51.276;6.390;2022-12-07T11:30:57;25.42;;;8.02;;
20997;SDS011;10657;51.276;6.390;2022-12-07T11:33:46;15.85;;;8.50;;
20997;SDS011;10657;51.276;6.390;2022-12-07T11:39:12;15.90;;;7.80;;
20997;SDS011;10657;51.276;6.390;2022-12-07T11:41:42;14.82;;;7.93;;
20997;SDS011;10657;51.276;6.390;2022-12-07T11:46:50;17.33;;;8.45;;
20997;SDS011;10657;51.276;6.390;2022-12-07T11:52:30;19.65;;;9.07;;
20997;SDS011;10657;51.276;6.390;2022-12-07T11:55:16;15.43;;;6.70;;
20997;SDS011;10657;51.276;6.390;2022-12-07T11:57:50;16.13;;;7.22;;
20997;SDS011;10657;51.276;6.390;2022-12-07T12:00:23;13.57;;;6.10;;
20997;SDS011;10657;51.276;6.390;2022-12-07T12:03:03;13.95;;;5.93;;
20997;SDS011;10657;51.276;6.390;2022-12-07T12:05:37;14.90;;;5.93;;
20997;SDS011;10657;51.276;6.390;2022-12-07T12:14:10;14.40;;;7.32;;
20997;SDS011;10657;51.276;6.390;2022-12-07T12:22:45;12.85;;;6.15;;
20997;SDS011;10657;51.276;6.390;2022-12-07T12:25:29;12.43;;;4.97;;
20997;SDS011;10657;51.276;6.390;2022-12-07T12:28:02;15.05;;;5.22;;
20997;SDS011;10657;51.276;6.390;2022-12-07T12:30:31;10.82;;;5.40;;
20997;SDS011;10657;51.276;6.390;2022-12-07T12:33:13;13.68;;;5.10;;
20997;SDS011;10657;51.276;6.390;2022-12-07T12:38:48;11.48;;;4.38;;
20997;SDS011;10657;51.276;6.390;2022-12-07T12:54:29;10.40;;;3.72;;
20997;SDS011;10657;51.276;6.390;2022-12-07T13:02:22;10.65;;;3.38;;
20997;SDS011;10657;51.276;6.390;2022-12-07T13:15:44;7.80;;;3.13;;
20997;SDS011;10657;51.276;6.390;2022-12-07T13:20:58;11.43;;;2.92;;
20997;SDS011;10657;51.276;6.390;2022-12-07T13:31:54;8.55;;;2.15;;
20997;SDS011;10657;51.276;6.390;2022-12-07T13:37:14;7.03;;;2.00;;
20997;SDS011;10657;51.276;6.390;2022-12-07T13:40:16;9.60;;;2.58;;
20997;SDS011;10657;51.276;6.390;2022-12-07T13:42:45;8.05;;;2.40;;
20997;SDS011;10657;51.276;6.390;2022-12-07T13:45:22;8.35;;;2.75;;
20997;SDS011;10657;51.276;6.390;2022-12-07T13:48:43;7.50;;;2.20;;
20997;SDS011;10657;51.276;6.390;2022-12-07T13:51:23;8.93;;;3.10;;
20997;SDS011;10657;51.276;6.390;2022-12-07T13:53:55;12.07;;;3.58;;
20997;SDS011;10657;51.276;6.390;2022-12-07T13:56:27;8.50;;;2.60;;
20997;SDS011;10657;51.276;6.390;2022-12-07T13:58:59;8.68;;;3.00;;
20997;SDS011;10657;51.276;6.390;2022-12-07T14:01:26;9.25;;;2.58;;
20997;SDS011;10657;51.276;6.390;2022-12-07T14:03:54;10.65;;;3.60;;
20997;SDS011;10657;51.276;6.390;2022-12-07T14:06:22;7.85;;;2.50;;
20997;SDS011;10657;51.276;6.390;2022-12-07T14:09:05;9.45;;;3.00;;
20997;SDS011;10657;51.276;6.390;2022-12-07T14:11:33;9.75;;;2.92;;
20997;SDS011;10657;51.276;6.390;2022-12-07T14:14:01;10.00;;;2.75;;
20997;SDS011;10657;51.276;6.390;2022-12-07T14:16:30;10.73;;;2.63;;
20997;SDS011;10657;51.276;6.390;2022-12-07T14:18:59;7.90;;;2.65;;
20997;SDS011;10657;51.276;6.390;2022-12-07T14:21:29;8.20;;;2.80;;
20997;SDS011;10657;51.276;6.390;2022-12-07T14:24:16;11.27;;;2.83;;
20997;SDS011;10657;51.276;6.390;2022-12-07T14:26:45;6.38;;;2.28;;
20997;SDS011;10657;51.276;6.390;2022-12-07T14:31:57;10.18;;;2.95;;
20997;SDS011;10657;51.276;6.390;2022-12-07T14:34:36;12.77;;;2.72;;
20997;SDS011;10657;51.276;6.390;2022-12-07T14:37:03;12.40;;;3.28;;
20997;SDS011;10657;51.276;6.390;2022-12-07T14:39:33;8.50;;;2.50;;
20997;SDS011;10657;51.276;6.390;2022-12-07T14:41:59;11.80;;;2.17;;
20997;SDS011;10657;51.276;6.390;2022-12-07T14:44:26;8.18;;;2.42;;
20997;SDS011;10657;51.276;6.390;2022-12-07T14:47:00;9.57;;;3.08;;
20997;SDS011;10657;51.276;6.390;2022-12-07T14:49:47;7.97;;;2.78;;
20997;SDS011;10657;51.276;6.390;2022-12-07T14:52:17;10.65;;;2.90;;
20997;SDS011;10657;51.276;6.390;2022-12-07T14:55:12;8.30;;;2.30;;
20997;SDS011;10657;51.276;6.390;2022-12-07T14:57:40;9.30;;;2.67;;
20997;SDS011;10657;51.276;6.390;2022-12-07T15:00:08;12.07;;;2.53;;
20997;SDS011;10657;51.276;6.390;2022-12-07T15:02:39;9.75;;;2.47;;
20997;SDS011;10657;51.276;6.390;2022-12-07T15:05:05;9.70;;;2.53;;
20997;SDS011;10657;51.276;6.390;2022-12-07T15:07:40;9.40;;;2.78;;
20997;SDS011;10657;51.276;6.390;2022-12-07T15:10:27;9.45;;;2.80;;
20997;SDS011;10657;51.276;6.390;2022-12-07T15:13:01;8.05;;;2.05;;
20997;SDS011;10657;51.276;6.390;2022-12-07T15:15:48;7.90;;;2.30;;
20997;SDS011;10657;51.276;6.390;2022-12-07T15:18:16;9.18;;;2.70;;
20997;SDS011;10657;51.276;6.390;2022-12-07T15:20:43;9.25;;;2.95;;
20997;SDS011;10657;51.276;6.390;2022-12-07T15:23:10;9.40;;;3.05;;
20997;SDS011;10657;51.276;6.390;2022-12-07T15:25:41;9.80;;;3.20;;
20997;SDS011;10657;51.276;6.390;2022-12-07T15:28:09;10.10;;;3.20;;
20997;SDS011;10657;51.276;6.390;2022-12-07T15:30:39;10.20;;;3.00;;
20997;SDS011;10657;51.276;6.390;2022-12-07T15:33:09;10.88;;;3.10;;
20997;SDS011;10657;51.276;6.390;2022-12-07T15:35:43;8.25;;;3.00;;
20997;SDS011;10657;51.276;6.390;2022-12-07T15:38:10;9.32;;;3.25;;
20997;SDS011;10657;51.276;6.390;2022-12-07T15:40:37;9.50;;;3.20;;
20997;SDS011;10657;51.276;6.390;2022-12-07T15:43:04;10.75;;;3.55;;
20997;SDS011;10657;51.276;6.390;2022-12-07T15:45:30;9.68;;;3.20;;
20997;SDS011;10657;51.276;6.390;2022-12-07T15:47:57;12.57;;;3.50;;
20997;SDS011;10657;51.276;6.390;2022-12-07T15:50:44;8.15;;;3.28;;
20997;SDS011;10657;51.276;6.390;2022-12-07T15:53:11;11.25;;;3.80;;
20997;SDS011;10657;51.276;6.390;2022-12-07T15:55:40;12.40;;;3.58;;
20997;SDS011;10657;51.276;6.390;2022-12-07T15:58:07;11.57;;;3.40;;
20997;SDS011;10657;51.276;6.390;2022-12-07T16:00:34;8.75;;;3.17;;
20997;SDS011;10657;51.276;6.390;2022-12-07T16:03:00;8.57;;;3.25;;
20997;SDS011;10657;51.276;6.390;2022-12-07T16:05:27;10.00;;;4.00;;
20997;SDS011;10657;51.276;6.390;2022-12-07T16:07:54;10.20;;;3.92;;
20997;SDS011;10657;51.276;6.390;2022-12-07T16:10:20;10.80;;;3.53;;
20997;SDS011;10657;51.276;6.390;2022-12-07T16:12:47;11.82;;;4.13;;
20997;SDS011;10657;51.276;6.390;2022-12-07T16:15:13;11.20;;;3.80;;
20997;SDS011;10657;51.276;6.390;2022-12-07T16:17:47;10.13;;;3.95;;
20997;SDS011;10657;51.276;6.390;2022-12-07T16:20:14;8.65;;;4.00;;
20997;SDS011;10657;51.276;6.390;2022-12-07T16:22:41;11.25;;;3.65;;
20997;SDS011;10657;51.276;6.390;2022-12-07T16:25:07;9.60;;;3.85;;
20997;SDS011;10657;51.276;6.390;2022-12-07T16:27:34;9.40;;;3.67;;
20997;SDS011;10657;51.276;6.390;2022-12-07T16:30:01;9.45;;;3.85;;
20997;SDS011;10657;51.276;6.390;2022-12-07T16:32:27;15.15;;;4.57;;
20997;SDS011;10657;51.276;6.390;2022-12-07T16:34:54;10.60;;;4.13;;
20997;SDS011;10657;51.276;6.390;2022-12-07T16:37:21;8.70;;;4.50;;
20997;SDS011;10657;51.276;6.390;2022-12-07T16:39:47;12.32;;;4.60;;
20997;SDS011;10657;51.276;6.390;2022-12-07T16:42:14;11.77;;;4.30;;
20997;SDS011;10657;51.276;6.390;2022-12-07T16:44:41;10.10;;;4.53;;
20997;SDS011;10657;51.276;6.390;2022-12-07T16:47:07;10.77;;;4.72;;
20997;SDS011;10657;51.276;6.390;2022-12-07T16:49:34;12.75;;;4.32;;
20997;SDS011;10657;51.276;6.390;2022-12-07T16:52:01;11.02;;;4.57;;
20997;SDS011;10657;51.276;6.390;2022-12-07T16:54:45;10.65;;;5.13;;
20997;SDS011;10657;51.276;6.390;2022-12-07T16:57:12;11.98;;;5.38;;
20997;SDS011;10657;51.276;6.390;2022-12-07T16:59:47;10.93;;;4.53;;
20997;SDS011;10657;51.276;6.390;2022-12-07T17:02:13;11.85;;;5.20;;
20997;SDS011;10657;51.276;6.390;2022-12-07T17:04:40;10.30;;;5.00;;
20997;SDS011;10657;51.276;6.390;2022-12-07T17:07:08;9.05;;;3.38;;
20997;SDS011;10657;51.276;6.390;2022-12-07T17:09:36;7.80;;;3.67;;
20997;SDS011;10657;51.276;6.390;2022-12-07T17:12:02;12.10;;;5.53;;
20997;SDS011;10657;51.276;6.390;2022-12-07T17:14:32;15.68;;;6.35;;
20997;SDS011;10657;51.276;6.390;2022-12-07T17:17:17;10.48;;;5.70;;
20997;SDS011;10657;51.276;6.390;2022-12-07T17:19:44;13.55;;;5.90;;
20997;SDS011;10657;51.276;6.390;2022-12-07T17:22:11;12.35;;;6.82;;